RJA301 OJAI-OJAQ
Flight info
| Callsign | RJA301 |
|---|---|
| Flight time | 0h 40m |
| Altitude | 20000 |
| Route | LOSIL1C/26L LOSIL M319 LOXUS |
| Aircraft | B789/H-SDE1E2E3FGHIJ2J3J4J5M1RWXY/LB1D1 |
Departure
| Time | 2026-04-26 17:17 |
|---|---|
| Airport | Queen Alia International Airport (OJAI) |
Arrival
| Time | 2026-04-26 17:57 |
|---|---|
| Airport | King Hussein International Airport (OJAQ) |
| Time | Latitude | Longitude | Altitude | Speed | Heading |
|---|---|---|---|---|---|
| 2026-04-26 16:56 | 31.72417 | 35.98750 | 2423 ft | 0 kts | 158° |
| 2026-04-26 17:04 | 31.72418 | 35.98750 | 2423 ft | 0 kts | 158° |
| 2026-04-26 17:07 | 31.72420 | 35.98749 | 2419 ft | 1 kts | 158° |
| 2026-04-26 17:07 | 31.72437 | 35.98741 | 2420 ft | 3 kts | 158° |
| 2026-04-26 17:08 | 31.72455 | 35.98732 | 2419 ft | 3 kts | 158° |
| 2026-04-26 17:08 | 31.72471 | 35.98725 | 2419 ft | 3 kts | 149° |
| 2026-04-26 17:08 | 31.72484 | 35.98711 | 2419 ft | 3 kts | 109° |
| 2026-04-26 17:08 | 31.72487 | 35.98689 | 2419 ft | 3 kts | 84° |
| 2026-04-26 17:09 | 31.72485 | 35.98671 | 2419 ft | 1 kts | 80° |
| 2026-04-26 17:10 | 31.72485 | 35.98670 | 2419 ft | 0 kts | 80° |
| 2026-04-26 17:10 | 31.72485 | 35.98672 | 2419 ft | 1 kts | 80° |
| 2026-04-26 17:11 | 31.72487 | 35.98683 | 2419 ft | 2 kts | 78° |
| 2026-04-26 17:11 | 31.72490 | 35.98703 | 2419 ft | 4 kts | 79° |
| 2026-04-26 17:11 | 31.72498 | 35.98759 | 2421 ft | 9 kts | 80° |
| 2026-04-26 17:11 | 31.72512 | 35.98855 | 2421 ft | 14 kts | 80° |
| 2026-04-26 17:12 | 31.72670 | 35.98937 | 2422 ft | 10 kts | 49° |
| 2026-04-26 17:12 | 31.72692 | 35.99015 | 2423 ft | 12 kts | 78° |
| 2026-04-26 17:13 | 31.72732 | 35.99290 | 2422 ft | 22 kts | 80° |
| 2026-04-26 17:13 | 31.72761 | 35.99486 | 2422 ft | 27 kts | 81° |
| 2026-04-26 17:13 | 31.72832 | 35.99967 | 2421 ft | 27 kts | 80° |
| 2026-04-26 17:14 | 31.72866 | 36.00202 | 2420 ft | 31 kts | 80° |
| 2026-04-26 17:14 | 31.72934 | 36.00672 | 2422 ft | 23 kts | 80° |
| 2026-04-26 17:14 | 31.72992 | 36.00782 | 2422 ft | 12 kts | 11° |
| 2026-04-26 17:15 | 31.73060 | 36.00781 | 2419 ft | 4 kts | 352° |
| 2026-04-26 17:15 | 31.73108 | 36.00772 | 2421 ft | 10 kts | 350° |
| 2026-04-26 17:15 | 31.73193 | 36.00737 | 2421 ft | 15 kts | 313° |
| 2026-04-26 17:16 | 31.73205 | 36.00614 | 2422 ft | 18 kts | 262° |
| 2026-04-26 17:16 | 31.73164 | 36.00326 | 2421 ft | 62 kts | 261° |
| 2026-04-26 17:16 | 31.73058 | 35.99596 | 2424 ft | 118 kts | 260° |
| 2026-04-26 17:16 | 31.72895 | 35.98466 | 2497 ft | 155 kts | 263° |
| 2026-04-26 17:17 | 31.72669 | 35.97300 | 3358 ft | 135 kts | 256° |
| 2026-04-26 17:17 | 31.72463 | 35.96299 | 3985 ft | 130 kts | 263° |
| 2026-04-26 17:17 | 31.72360 | 35.95125 | 4253 ft | 159 kts | 264° |
| 2026-04-26 17:17 | 31.72199 | 35.93731 | 4678 ft | 188 kts | 262° |
| 2026-04-26 17:18 | 31.71977 | 35.92111 | 5186 ft | 214 kts | 259° |
| 2026-04-26 17:18 | 31.71651 | 35.90307 | 5706 ft | 238 kts | 248° |
| 2026-04-26 17:18 | 31.70637 | 35.88676 | 6308 ft | 258 kts | 221° |
| 2026-04-26 17:18 | 31.69035 | 35.87748 | 7348 ft | 261 kts | 194° |
| 2026-04-26 17:19 | 31.65401 | 35.87410 | 9354 ft | 264 kts | 186° |
| 2026-04-26 17:19 | 31.63565 | 35.87265 | 10359 ft | 265 kts | 185° |
| 2026-04-26 17:19 | 31.61707 | 35.87120 | 11197 ft | 270 kts | 186° |
| 2026-04-26 17:20 | 31.59827 | 35.86971 | 12100 ft | 272 kts | 186° |
| 2026-04-26 17:20 | 31.58572 | 35.86872 | 12705 ft | 273 kts | 186° |
| 2026-04-26 17:20 | 31.56020 | 35.86670 | 13873 ft | 276 kts | 186° |
| 2026-04-26 17:20 | 31.54085 | 35.86517 | 14593 ft | 281 kts | 186° |
| 2026-04-26 17:21 | 31.52126 | 35.86362 | 15341 ft | 283 kts | 186° |
| 2026-04-26 17:21 | 31.50146 | 35.86206 | 16082 ft | 287 kts | 187° |
| 2026-04-26 17:21 | 31.48146 | 35.86048 | 16822 ft | 290 kts | 187° |
| 2026-04-26 17:21 | 31.46127 | 35.85877 | 17201 ft | 306 kts | 188° |
| 2026-04-26 17:22 | 31.43924 | 35.85641 | 17240 ft | 330 kts | 188° |
| 2026-04-26 17:22 | 31.41552 | 35.85390 | 17294 ft | 353 kts | 188° |
| 2026-04-26 17:22 | 31.39034 | 35.85145 | 17338 ft | 373 kts | 187° |
| 2026-04-26 17:22 | 31.36406 | 35.84894 | 17670 ft | 382 kts | 187° |
| 2026-04-26 17:23 | 31.33759 | 35.84635 | 18337 ft | 383 kts | 188° |
| 2026-04-26 17:23 | 31.31094 | 35.84368 | 18815 ft | 386 kts | 188° |
| 2026-04-26 17:23 | 31.28412 | 35.84101 | 19360 ft | 387 kts | 188° |
| 2026-04-26 17:23 | 31.25770 | 35.83842 | 19907 ft | 388 kts | 188° |
| 2026-04-26 17:24 | 31.23050 | 35.83572 | 19911 ft | 393 kts | 188° |
| 2026-04-26 17:24 | 31.20336 | 35.83305 | 19972 ft | 394 kts | 188° |
| 2026-04-26 17:24 | 31.17619 | 35.83038 | 19967 ft | 388 kts | 188° |
| 2026-04-26 17:24 | 31.14984 | 35.82778 | 19956 ft | 389 kts | 188° |
| 2026-04-26 17:25 | 31.12300 | 35.82513 | 19974 ft | 386 kts | 188° |
| 2026-04-26 17:25 | 31.09669 | 35.82023 | 19970 ft | 381 kts | 201° |
| 2026-04-26 17:25 | 31.07229 | 35.80886 | 19972 ft | 382 kts | 206° |
| 2026-04-26 17:25 | 31.04795 | 35.79612 | 19970 ft | 380 kts | 206° |
| 2026-04-26 17:26 | 31.02339 | 35.78459 | 19976 ft | 382 kts | 202° |
| 2026-04-26 17:26 | 30.99858 | 35.77442 | 19973 ft | 383 kts | 202° |
| 2026-04-26 17:26 | 30.97355 | 35.76385 | 19958 ft | 384 kts | 203° |
| 2026-04-26 17:26 | 30.94864 | 35.75263 | 19978 ft | 384 kts | 204° |
| 2026-04-26 17:27 | 30.92381 | 35.74149 | 19964 ft | 381 kts | 204° |
| 2026-04-26 17:27 | 30.89900 | 35.73057 | 19961 ft | 383 kts | 203° |
| 2026-04-26 17:27 | 30.87388 | 35.71975 | 19970 ft | 384 kts | 203° |
| 2026-04-26 17:27 | 30.84891 | 35.70884 | 19967 ft | 383 kts | 204° |
| 2026-04-26 17:28 | 30.82394 | 35.69781 | 19962 ft | 385 kts | 204° |
| 2026-04-26 17:28 | 30.79930 | 35.68699 | 19973 ft | 383 kts | 204° |
| 2026-04-26 17:28 | 30.77427 | 35.67605 | 19949 ft | 384 kts | 204° |
| 2026-04-26 17:28 | 30.74928 | 35.66513 | 19947 ft | 384 kts | 204° |
| 2026-04-26 17:29 | 30.72436 | 35.65423 | 19703 ft | 382 kts | 204° |
| 2026-04-26 17:29 | 30.70786 | 35.64699 | 19392 ft | 383 kts | 204° |
| 2026-04-26 17:29 | 30.67465 | 35.63248 | 18924 ft | 380 kts | 204° |
| 2026-04-26 17:29 | 30.64996 | 35.62171 | 18568 ft | 379 kts | 204° |
| 2026-04-26 17:30 | 30.62524 | 35.61091 | 18207 ft | 378 kts | 204° |
| 2026-04-26 17:30 | 30.60068 | 35.60019 | 17823 ft | 377 kts | 203° |
| 2026-04-26 17:30 | 30.57619 | 35.58953 | 17431 ft | 375 kts | 203° |
| 2026-04-26 17:30 | 30.55212 | 35.57904 | 17107 ft | 373 kts | 203° |
| 2026-04-26 17:31 | 30.52786 | 35.56846 | 16692 ft | 373 kts | 203° |
| 2026-04-26 17:31 | 30.50366 | 35.55793 | 16378 ft | 371 kts | 203° |
| 2026-04-26 17:31 | 30.48021 | 35.54773 | 16054 ft | 370 kts | 203° |
| 2026-04-26 17:31 | 30.45546 | 35.53696 | 15728 ft | 369 kts | 202° |
| 2026-04-26 17:32 | 30.43154 | 35.52657 | 15304 ft | 366 kts | 202° |
| 2026-04-26 17:32 | 30.40773 | 35.51622 | 14719 ft | 366 kts | 202° |
| 2026-04-26 17:32 | 30.38402 | 35.50592 | 14326 ft | 362 kts | 202° |
| 2026-04-26 17:32 | 30.36078 | 35.49588 | 13892 ft | 361 kts | 203° |
| 2026-04-26 17:33 | 30.33736 | 35.48570 | 13460 ft | 359 kts | 203° |
| 2026-04-26 17:33 | 30.31408 | 35.47559 | 13034 ft | 356 kts | 203° |
| 2026-04-26 17:33 | 30.29091 | 35.46556 | 12625 ft | 354 kts | 202° |
| 2026-04-26 17:34 | 30.24499 | 35.44569 | 11853 ft | 351 kts | 202° |
| 2026-04-26 17:34 | 30.22223 | 35.43588 | 11450 ft | 349 kts | 201° |
| 2026-04-26 17:34 | 30.19839 | 35.43010 | 11023 ft | 350 kts | 191° |
| 2026-04-26 17:34 | 30.17471 | 35.42538 | 10662 ft | 349 kts | 193° |
| 2026-04-26 17:35 | 30.15098 | 35.42038 | 10377 ft | 346 kts | 193° |
| 2026-04-26 17:35 | 30.12722 | 35.41566 | 10039 ft | 345 kts | 192° |
| 2026-04-26 17:35 | 30.10381 | 35.41115 | 9985 ft | 341 kts | 192° |
| 2026-04-26 17:35 | 30.08017 | 35.40648 | 9998 ft | 345 kts | 192° |
| 2026-04-26 17:36 | 30.05663 | 35.40178 | 10000 ft | 344 kts | 192° |
| 2026-04-26 17:36 | 30.03291 | 35.39708 | 9978 ft | 345 kts | 192° |
| 2026-04-26 17:36 | 30.00930 | 35.39246 | 9978 ft | 344 kts | 192° |
| 2026-04-26 17:36 | 29.98558 | 35.38846 | 9987 ft | 345 kts | 190° |
| 2026-04-26 17:37 | 29.96179 | 35.38494 | 9990 ft | 345 kts | 190° |
| 2026-04-26 17:37 | 29.93830 | 35.38164 | 9985 ft | 344 kts | 189° |
| 2026-04-26 17:37 | 29.91452 | 35.37835 | 9986 ft | 343 kts | 189° |
| 2026-04-26 17:38 | 29.86709 | 35.37179 | 9983 ft | 343 kts | 189° |
| 2026-04-26 17:38 | 29.84343 | 35.36856 | 9980 ft | 343 kts | 189° |
| 2026-04-26 17:38 | 29.81965 | 35.36533 | 9981 ft | 344 kts | 189° |
| 2026-04-26 17:38 | 29.79598 | 35.36212 | 9982 ft | 342 kts | 189° |
| 2026-04-26 17:39 | 29.77221 | 35.35886 | 9984 ft | 344 kts | 189° |
| 2026-04-26 17:39 | 29.74881 | 35.35565 | 9984 ft | 343 kts | 189° |
| 2026-04-26 17:39 | 29.72499 | 35.35237 | 9984 ft | 344 kts | 189° |
| 2026-04-26 17:39 | 29.70120 | 35.34910 | 9971 ft | 345 kts | 189° |
| 2026-04-26 17:40 | 29.67731 | 35.34583 | 9978 ft | 346 kts | 189° |
| 2026-04-26 17:40 | 29.66927 | 35.34473 | 9976 ft | 344 kts | 189° |
| 2026-04-26 17:40 | 29.62970 | 35.33926 | 9983 ft | 346 kts | 189° |
| 2026-04-26 17:40 | 29.60583 | 35.33599 | 9980 ft | 345 kts | 189° |
| 2026-04-26 17:41 | 29.58228 | 35.33282 | 9983 ft | 345 kts | 189° |
| 2026-04-26 17:41 | 29.55847 | 35.32959 | 9983 ft | 346 kts | 189° |
| 2026-04-26 17:41 | 29.53451 | 35.32630 | 9983 ft | 346 kts | 189° |
| 2026-04-26 17:41 | 29.51068 | 35.32297 | 9981 ft | 345 kts | 189° |
| 2026-04-26 17:42 | 29.48680 | 35.31963 | 9980 ft | 350 kts | 190° |
| 2026-04-26 17:42 | 29.46222 | 35.31623 | 9986 ft | 355 kts | 189° |
| 2026-04-26 17:42 | 29.43784 | 35.31283 | 9993 ft | 352 kts | 190° |
| 2026-04-26 17:42 | 29.41351 | 35.30854 | 9986 ft | 354 kts | 195° |
| 2026-04-26 17:43 | 29.39011 | 35.30044 | 9999 ft | 350 kts | 201° |
| 2026-04-26 17:43 | 29.36750 | 35.29064 | 9997 ft | 353 kts | 203° |
| 2026-04-26 17:43 | 29.34472 | 35.28013 | 9948 ft | 352 kts | 204° |
| 2026-04-26 17:43 | 29.32217 | 35.26951 | 9836 ft | 350 kts | 204° |
| 2026-04-26 17:44 | 29.29984 | 35.25847 | 9577 ft | 347 kts | 208° |
| 2026-04-26 17:44 | 29.27937 | 35.24533 | 9290 ft | 327 kts | 212° |
| 2026-04-26 17:44 | 29.26048 | 35.23189 | 8903 ft | 315 kts | 214° |
| 2026-04-26 17:44 | 29.24226 | 35.21845 | 8484 ft | 308 kts | 214° |
| 2026-04-26 17:45 | 29.22445 | 35.20526 | 8072 ft | 302 kts | 214° |
| 2026-04-26 17:45 | 29.20705 | 35.19238 | 7688 ft | 302 kts | 214° |
| 2026-04-26 17:45 | 29.18948 | 35.17937 | 7272 ft | 299 kts | 214° |
| 2026-04-26 17:45 | 29.17214 | 35.16642 | 6905 ft | 299 kts | 214° |
| 2026-04-26 17:46 | 29.15480 | 35.15343 | 6523 ft | 298 kts | 215° |
| 2026-04-26 17:46 | 29.13756 | 35.14034 | 6120 ft | 296 kts | 219° |
| 2026-04-26 17:46 | 29.12557 | 35.12160 | 5740 ft | 294 kts | 249° |
| 2026-04-26 17:46 | 29.12166 | 35.09888 | 5365 ft | 294 kts | 269° |
| 2026-04-26 17:47 | 29.12531 | 35.07589 | 5221 ft | 297 kts | 289° |
| 2026-04-26 17:47 | 29.12806 | 35.06887 | 5196 ft | 298 kts | 296° |
| 2026-04-26 17:47 | 29.15167 | 35.04029 | 5027 ft | 302 kts | 319° |
| 2026-04-26 17:47 | 29.16810 | 35.02522 | 4895 ft | 302 kts | 319° |
| 2026-04-26 17:48 | 29.18397 | 35.01088 | 4778 ft | 279 kts | 319° |
| 2026-04-26 17:48 | 29.19883 | 34.99762 | 4681 ft | 261 kts | 319° |
| 2026-04-26 17:48 | 29.21303 | 34.98503 | 4459 ft | 255 kts | 321° |
| 2026-04-26 17:48 | 29.22755 | 34.97391 | 4178 ft | 249 kts | 327° |
| 2026-04-26 17:49 | 29.24205 | 34.96379 | 3822 ft | 239 kts | 327° |
| 2026-04-26 17:49 | 29.25610 | 34.95470 | 3442 ft | 231 kts | 336° |
| 2026-04-26 17:49 | 29.27175 | 34.95306 | 3050 ft | 228 kts | 2° |
| 2026-04-26 17:49 | 29.28719 | 34.95433 | 2922 ft | 209 kts | 0° |
| 2026-04-26 17:50 | 29.30097 | 34.95421 | 2866 ft | 188 kts | 355° |
| 2026-04-26 17:50 | 29.31333 | 34.95338 | 2829 ft | 172 kts | 354° |
| 2026-04-26 17:50 | 29.32512 | 34.95255 | 2596 ft | 171 kts | 355° |
| 2026-04-26 17:50 | 29.33680 | 34.95185 | 2409 ft | 164 kts | 354° |
| 2026-04-26 17:51 | 29.34818 | 34.95116 | 2126 ft | 163 kts | 354° |
| 2026-04-26 17:51 | 29.35891 | 34.95053 | 2064 ft | 152 kts | 354° |
| 2026-04-26 17:51 | 29.36961 | 34.94989 | 2063 ft | 155 kts | 355° |
| 2026-04-26 17:51 | 29.38022 | 34.94927 | 2078 ft | 147 kts | 354° |
| 2026-04-26 17:52 | 29.39049 | 34.94865 | 2080 ft | 151 kts | 354° |
| 2026-04-26 17:52 | 29.40083 | 34.94802 | 2075 ft | 149 kts | 354° |
| 2026-04-26 17:52 | 29.41154 | 34.94858 | 2045 ft | 159 kts | 9° |
| 2026-04-26 17:52 | 29.42207 | 34.95200 | 2075 ft | 157 kts | 10° |
| 2026-04-26 17:53 | 29.43252 | 34.95533 | 2072 ft | 156 kts | 12° |
| 2026-04-26 17:53 | 29.44289 | 34.95898 | 2074 ft | 157 kts | 11° |
| 2026-04-26 17:53 | 29.45335 | 34.96263 | 2074 ft | 156 kts | 11° |
| 2026-04-26 17:54 | 29.47433 | 34.96995 | 2073 ft | 158 kts | 13° |
| 2026-04-26 17:54 | 29.48471 | 34.97360 | 2072 ft | 153 kts | 12° |
| 2026-04-26 17:54 | 29.49461 | 34.97709 | 2068 ft | 145 kts | 12° |
| 2026-04-26 17:54 | 29.50439 | 34.98050 | 2030 ft | 153 kts | 11° |
| 2026-04-26 17:55 | 29.51397 | 34.98387 | 1858 ft | 137 kts | 12° |
| 2026-04-26 17:55 | 29.52295 | 34.98699 | 1698 ft | 139 kts | 12° |
| 2026-04-26 17:55 | 29.53244 | 34.99029 | 1534 ft | 143 kts | 14° |
| 2026-04-26 17:55 | 29.54227 | 34.99368 | 1317 ft | 147 kts | 17° |
| 2026-04-26 17:56 | 29.55171 | 34.99705 | 1108 ft | 143 kts | 13° |
| 2026-04-26 17:56 | 29.57013 | 35.00382 | 722 ft | 134 kts | 15° |
| 2026-04-26 17:57 | 29.58802 | 35.00975 | 420 ft | 134 kts | 18° |
| 2026-04-26 17:57 | 29.59688 | 35.01298 | 252 ft | 135 kts | 14° |
| 2026-04-26 17:57 | 29.60528 | 35.01585 | 180 ft | 105 kts | 18° |
| 2026-04-26 17:57 | 29.60989 | 35.01738 | 180 ft | 35 kts | 15° |
| 2026-04-26 17:58 | 29.61174 | 35.01877 | 179 ft | 8 kts | 119° |
| 2026-04-26 17:59 | 29.61078 | 35.02037 | 182 ft | 0 kts | 108° |
| 2026-04-26 17:59 | 29.61084 | 35.02010 | 181 ft | 5 kts | 105° |
| 2026-04-26 17:59 | 29.61077 | 35.02036 | 182 ft | 0 kts | 108° |
| 2026-04-26 18:00 | 29.61067 | 35.02033 | 140 ft | 0 kts | 108° |